Portada
METAR-TAF:

METAR-TAF

Aeroports :

Shenandoah Municipal Airport

Shenandoah, Iowa, Estats Units d'Amèrica

latitud: 40-45N, longitud: 095-25W, altitud: 296 m

Observació

L'informe es va fer fa 28 minuts, a les 11:55 UTC
Vent 8 kt del Sud
Temperatura 25°C
Humitat 79%
Pressió 1011 hPa
Visibilitat: 16.1 km
Cel clar

METAR: KSDA 221155Z AUTO 18008KT 10SM CLR 25/21 A2985 RMK AO2

Hora: 07:23 (12:23 UTC)


TAF: manca

Observacions i pronòstics meteorològics de més de 4000 aeroports (METAR i TAF).

Les estacions disponibles són els punts grocs i vermells al mapa.

Posi el ratolí al punt desitjat per veure el nom de l'estació.

Feu clic per veure les observacions i els pronòstics meteorològics.

Per canviar el mapa: feu clic els botons verds amb una creu de color negre per apropar; al botó verd amb un guió per allunyar la imatge; o en les fletxes verdes per a mapes adjacents.


METAR-TAF: